Weather at Grundy Municipal Airport

Public forecast

Using degrees Fahrenheit for public forecast. Weather courtesy of forecast.io.

Closest aviation weather report (METAR) to Grundy Municipal Airport

Closest report is Tazewell County Airport, 18.6 nm (34.5 km) ESE. Retrieved 2020/09/27 04:15 UTC (0 seconds ago):

KJFZ 270415Z AUTO 17003KT 7SM CLR 15/14 A3007 RMK AO2 T01450143

Closest aviation forecast (TAF) to Grundy Municipal Airport

Closest forecast is Mercer County Airport, 44.0 nm (81.5 km) E. Retrieved 2020-09-27 00:24 UTC (4 hours ago):

TAF KBLF 262321Z 2700/2724 00000KT P6SM BKN035 FM271000 VRB02KT 2SM BR BKN008 FM271200 00000KT 1/4SM FG BKN004 FM271300 25004KT 3SM BR BKN015 FM271400 22006KT P6SM SCT018 BKN050